Time;durP1;ratioP1;P1;durP2;ratioP2;P2;SDS_P1;SDS_P2;PMS_P1;PMS_P2;Temp;Humidity;BMP_temperature;BMP_pressure;BME280_temperature;BME280_humidity;BME280_pressure;Samples;Min_cycle;Max_cycle;Signal;HPM_P1;HPM_P2
2022/03/09 03:32:10;;;;;;;17.23;6.43;;;;;;;-1.90;70.55;102017.75;3370757;23;20307;-96
2022/03/09 03:34:35;;;;;;;16.95;8.07;;;;;;;-1.98;70.86;101993.03;4915016;29;20095;-92
2022/03/09 03:37:00;;;;;;;17.37;7.00;;;;;;;-1.86;70.51;102019.94;4917137;29;20432;-93
2022/03/09 03:39:28;;;;;;;13.43;7.50;;;;;;;-1.91;70.80;102011.66;4920415;29;20155;-91
2022/03/09 03:41:53;;;;;;;12.93;6.80;;;;;;;-1.92;70.82;102024.97;4909586;29;20443;-92
2022/03/09 03:44:19;;;;;;;12.93;6.50;;;;;;;-2.06;70.72;102019.22;4899420;29;20024;-93
2022/03/09 03:46:44;;;;;;;13.80;7.00;;;;;;;-2.15;71.05;102013.03;4899503;29;20040;-93
2022/03/09 03:49:10;;;;;;;15.60;6.17;;;;;;;-2.26;71.31;101999.25;4898159;29;20107;-93
2022/03/09 03:51:35;;;;;;;12.07;7.13;;;;;;;-2.33;71.16;102007.69;4897944;29;20041;-93
2022/03/09 03:54:01;;;;;;;14.77;7.00;;;;;;;-2.37;71.85;101998.44;4898960;29;20563;-93
2022/03/09 03:56:32;;;;;;;14.20;6.77;;;;;;;-2.39;71.82;102002.19;4899158;29;20633;-95
2022/03/09 04:04:09;;;;;;;15.67;6.73;;;;;;;-2.41;72.58;101994.47;5858306;23;20531;-94
2022/03/09 04:06:34;;;;;;;14.63;6.70;;;;;;;-2.39;72.49;102003.03;4913832;29;20383;-94
2022/03/09 04:09:09;;;;;;;15.00;7.10;;;;;;;-2.28;72.31;102012.50;4913335;29;20135;-94
2022/03/09 04:11:34;;;;;;;11.77;6.57;;;;;;;-2.28;72.81;102023.84;4899869;29;20024;-94
2022/03/09 04:13:59;;;;;;;14.23;6.93;;;;;;;-2.32;72.30;102014.59;4916813;29;20280;-94
2022/03/09 04:16:24;;;;;;;13.07;6.40;;;;;;;-2.22;72.38;102021.63;4916224;29;20032;-94
2022/03/09 04:18:50;;;;;;;16.20;7.50;;;;;;;-2.22;72.13;102011.94;4916995;29;20044;-96
2022/03/09 04:21:18;;;;;;;15.03;6.40;;;;;;;-2.21;72.07;102004.91;4920601;29;20036;-94
2022/03/09 04:23:43;;;;;;;15.63;6.85;;;;;;;-2.21;72.14;102004.91;4907809;29;20086;-94
2022/03/09 04:26:10;;;;;;;13.97;6.40;;;;;;;-2.22;71.86;102000.63;4915791;29;20665;-94
2022/03/09 04:28:41;;;;;;;14.07;6.68;;;;;;;-2.22;72.40;102003.25;4915865;29;20119;-95
2022/03/09 04:31:09;;;;;;;13.70;6.50;;;;;;;-2.24;72.19;101992.84;4916858;29;20028;-95
2022/03/09 04:33:35;;;;;;;15.18;6.63;;;;;;;-2.13;72.02;102012.88;4917043;29;20031;-94
2022/03/09 04:36:04;;;;;;;15.00;6.57;;;;;;;-2.13;71.92;102013.72;4912676;29;20071;-94
2022/03/09 04:38:35;;;;;;;15.48;7.45;;;;;;;-2.24;72.39;101992.84;4915526;29;20035;-93
2022/03/09 04:41:00;;;;;;;14.73;6.68;;;;;;;-2.25;72.52;101993.03;4916218;29;20046;-95
2022/03/09 04:43:26;;;;;;;11.67;6.30;;;;;;;-2.24;72.58;102005.19;4916723;29;20044;-93
2022/03/09 04:45:51;;;;;;;15.33;7.33;;;;;;;-2.13;72.27;102005.00;4916078;29;20032;-94
2022/03/09 04:48:16;;;;;;;16.67;6.97;;;;;;;-2.23;72.28;101999.78;4915263;29;20115;-93
2022/03/09 04:50:41;;;;;;;16.03;7.20;;;;;;;-2.24;72.45;102007.81;4916729;29;20043;-94
2022/03/09 04:53:07;;;;;;;14.05;6.40;;;;;;;-2.30;72.10;102007.41;4898353;29;20490;-94
2022/03/09 04:55:32;;;;;;;13.20;6.50;;;;;;;-2.37;72.62;102006.31;4916015;29;20030;-94
2022/03/09 04:57:57;;;;;;;12.40;6.53;;;;;;;-2.39;72.55;102005.66;4917429;29;20032;-95
2022/03/09 05:00:26;;;;;;;16.20;6.83;;;;;;;-2.36;72.64;102012.41;4917133;29;20383;-96
2022/03/09 05:02:54;;;;;;;12.00;6.70;;;;;;;-2.46;72.65;102000.09;4916782;29;20032;-94
2022/03/09 05:05:19;;;;;;;15.38;6.15;;;;;;;-2.52;72.51;101998.06;4916187;29;20111;-95
2022/03/09 05:07:48;;;;;;;16.47;6.77;;;;;;;-2.57;73.79;101997.66;4916494;29;20047;-93
2022/03/09 05:10:26;;;;;;;11.00;6.32;;;;;;;-2.57;73.03;101997.66;5298687;23;20048;-96
2022/03/09 05:13:07;;;;;;;13.68;6.63;;;;;;;-2.56;73.02;102004.56;5168444;23;20044;-96
2022/03/09 05:15:33;;;;;;;14.20;6.00;;;;;;;-2.65;73.08;102008.06;4907972;29;20036;-96
2022/03/09 05:18:09;;;;;;;13.67;6.87;;;;;;;-2.78;74.00;101995.22;4901705;29;20287;-96
2022/03/09 05:20:34;;;;;;;15.02;7.10;;;;;;;-2.69;74.36;102012.75;4889662;29;20064;-94
2022/03/09 05:39:34;;;;;;;14.10;5.97;;;;;;;-2.83;73.80;101994.81;4933918;23;20057;-96
2022/03/09 05:45:43;;;;;;;13.70;6.15;;;;;;;-2.75;73.85;102029.06;4907014;29;20073;-96
2022/03/09 05:48:20;;;;;;;12.25;6.45;;;;;;;-2.88;74.63;102016.22;4919019;23;20055;-96
2022/03/09 05:51:37;;;;;;;13.38;6.35;;;;;;;-3.01;74.33;102011.25;4906784;29;20037;-95
2022/03/09 05:54:20;;;;;;;14.95;6.82;;;;;;;-2.94;74.69;102020.25;4841241;29;20053;-93
2022/03/09 06:03:50;;;;;;;17.20;6.28;;;;;;;-3.08;75.39;102028.50;4790727;29;20047;-93
2022/03/09 06:06:34;;;;;;;12.95;6.55;;;;;;;-3.14;74.74;102026.44;4875290;29;20069;-94
2022/03/09 06:09:02;;;;;;;13.00;6.13;;;;;;;-3.12;75.26;102048.13;4881135;29;20045;-95
2022/03/09 06:11:49;;;;;;;17.60;7.63;;;;;;;-3.02;75.57;102054.19;4887568;29;20298;-93
2022/03/09 06:14:24;;;;;;;20.33;6.97;;;;;;;-3.01;75.14;102058.47;4891550;29;20025;-92
2022/03/09 06:16:59;;;;;;;13.65;6.80;;;;;;;-3.07;75.65;102051.13;4872307;29;20093;-93
2022/03/09 06:19:34;;;;;;;17.40;6.80;;;;;;;-3.06;75.61;102037.06;4861560;29;20058;-93
2022/03/09 06:22:12;;;;;;;15.63;7.15;;;;;;;-3.09;75.67;102038.19;4879152;29;20047;-96
2022/03/09 06:24:38;;;;;;;12.20;6.25;;;;;;;-3.06;75.18;102045.78;4878857;29;20026;-92
2022/03/09 06:27:29;;;;;;;15.60;6.87;;;;;;;-3.03;75.19;102055.16;4851856;29;20102;-92
2022/03/09 06:29:57;;;;;;;11.45;6.10;;;;;;;-3.01;75.58;102060.28;4854058;29;20072;-89
2022/03/09 06:32:22;;;;;;;17.58;6.15;;;;;;;-3.05;76.04;102059.69;4890428;29;20033;-89
2022/03/09 06:34:47;;;;;;;12.87;6.57;;;;;;;-3.03;76.02;102059.59;4894181;29;20033;-89
2022/03/09 06:37:13;;;;;;;16.97;6.37;;;;;;;-2.96;75.75;102066.75;4889656;29;20066;-88
2022/03/09 06:39:38;;;;;;;12.93;6.17;;;;;;;-2.89;75.36;102070.47;4885824;29;20029;-89
2022/03/09 06:42:03;;;;;;;15.40;6.47;;;;;;;-2.90;75.23;102066.19;4878311;29;20037;-88
2022/03/09 06:44:29;;;;;;;11.52;5.88;;;;;;;-2.89;74.94;102069.66;4877160;29;20040;-91
2022/03/09 06:46:56;;;;;;;14.07;6.70;;;;;;;-2.86;75.52;102074.63;4873715;29;20067;-90
2022/03/09 06:49:22;;;;;;;13.83;6.00;;;;;;;-2.77;75.30;102081.66;4873802;29;20293;-88
2022/03/09 06:51:47;;;;;;;12.68;6.72;;;;;;;-2.63;75.06;102088.28;4876455;29;20041;-89
2022/03/09 06:54:12;;;;;;;14.23;6.20;;;;;;;-2.60;74.21;102089.81;4876539;29;20189;-90
2022/03/09 06:56:37;;;;;;;13.10;5.93;;;;;;;-2.50;74.65;102095.03;4876212;29;20372;-92
2022/03/09 06:59:03;;;;;;;14.80;6.47;;;;;;;-2.44;74.19;102105.00;4878042;29;20029;-92
2022/03/09 07:01:28;;;;;;;15.90;6.63;;;;;;;-2.41;73.90;102096.84;4880972;29;20037;-92
2022/03/09 07:03:56;;;;;;;14.30;6.37;;;;;;;-2.41;73.75;102102.09;4880621;29;20032;-89
2022/03/09 07:06:21;;;;;;;14.35;6.60;;;;;;;-2.32;74.54;102101.25;4879835;29;20036;-90
2022/03/09 07:08:46;;;;;;;11.90;6.27;;;;;;;-2.23;74.22;102109.25;4879690;29;20488;-92
2022/03/09 07:11:12;;;;;;;16.33;7.27;;;;;;;-2.14;73.53;102103.13;4883153;29;20029;-91
2022/03/09 07:13:37;;;;;;;12.77;5.97;;;;;;;-2.06;73.23;102105.91;4883525;29;20092;-90
2022/03/09 07:16:03;;;;;;;9.90;6.13;;;;;;;-1.93;72.62;102123.13;4879645;29;20029;-88
2022/03/09 07:18:28;;;;;;;13.53;5.97;;;;;;;-1.86;72.79;102121.59;4879398;29;20064;-91
2022/03/09 07:20:53;;;;;;;14.03;6.97;;;;;;;-1.78;72.78;102124.34;4880224;29;20483;-90
2022/03/09 07:23:19;;;;;;;15.65;7.30;;;;;;;-1.63;71.90;102127.34;4859917;29;20132;-90
2022/03/09 07:25:47;;;;;;;14.43;7.47;;;;;;;-1.48;71.50;102125.06;4863493;29;20404;-90
2022/03/09 07:28:12;;;;;;;14.70;6.15;;;;;;;-1.37;70.97;102121.41;4876887;29;20029;-89
2022/03/09 07:30:50;;;;;;;12.47;6.10;;;;;;;-1.35;71.02;102111.53;4879041;29;20120;-91
2022/03/09 07:33:24;;;;;;;12.52;6.43;;;;;;;-1.34;70.65;102093.97;4879189;29;20033;-90
2022/03/09 07:36:37;;;;;;;15.55;6.40;;;;;;;-1.25;70.06;102095.72;4850770;29;20104;-91
2022/03/09 07:39:15;;;;;;;13.93;6.32;;;;;;;-1.00;69.19;102111.75;4876666;29;20037;-90
2022/03/09 07:41:41;;;;;;;17.33;5.97;;;;;;;-1.02;69.09;102103.19;4873927;29;20056;-90
2022/03/09 07:44:06;;;;;;;13.37;6.90;;;;;;;-0.81;68.71;102126.56;4879212;29;20841;-89
2022/03/09 07:46:34;;;;;;;11.57;5.83;;;;;;;-0.75;67.74;102112.00;4878370;29;20476;-84
2022/03/09 07:49:00;;;;;;;15.73;6.25;;;;;;;-0.66;68.77;102116.34;4860388;29;20508;-84
2022/03/09 07:51:25;;;;;;;15.27;6.80;;;;;;;-0.48;67.29;102116.34;4878072;29;20078;-83
2022/03/09 07:53:56;;;;;;;15.00;6.75;;;;;;;-0.29;66.91;102120.59;4874515;29;20040;-83
2022/03/09 07:56:22;;;;;;;12.75;6.88;;;;;;;-0.13;66.09;102124.31;4877006;29;20033;-84
2022/03/09 07:58:47;;;;;;;12.60;6.40;;;;;;;0.00;66.04;102122.13;4877353;29;20032;-83
2022/03/09 08:01:18;;;;;;;26.23;7.40;;;;;;;0.04;66.06;102107.63;4877117;29;20036;-83
2022/03/09 08:03:44;;;;;;;15.02;6.55;;;;;;;0.14;65.55;102120.69;4861601;29;20033;-83
2022/03/09 08:06:09;;;;;;;14.87;7.07;;;;;;;0.10;65.28;102093.84;4859801;29;20036;-82
2022/03/09 08:08:35;;;;;;;10.63;6.83;;;;;;;0.17;65.49;102111.69;4877818;29;20104;-83
2022/03/09 08:11:00;;;;;;;15.02;7.40;;;;;;;0.33;64.35;102113.53;4859991;29;20029;-82
2022/03/09 08:13:25;;;;;;;13.07;6.57;;;;;;;0.50;63.76;102131.09;4867029;29;20120;-82
2022/03/09 08:15:51;;;;;;;12.73;6.63;;;;;;;0.63;63.97;102128.03;4878020;29;20029;-82
2022/03/09 08:18:16;;;;;;;16.77;7.23;;;;;;;0.75;63.88;102142.56;4883664;29;20096;-82
2022/03/09 08:20:41;;;;;;;15.73;6.83;;;;;;;0.84;63.43;102146.06;4868852;29;20036;-83
2022/03/09 08:23:08;;;;;;;14.80;6.53;;;;;;;0.92;63.08;102139.16;4877449;29;20033;-82
2022/03/09 08:25:34;;;;;;;12.63;6.97;;;;;;;1.07;62.06;102149.94;4877351;29;20061;-83
2022/03/09 08:28:00;;;;;;;12.17;6.47;;;;;;;1.08;62.76;102144.47;4873781;29;20384;-82
2022/03/09 08:30:26;;;;;;;16.88;7.85;;;;;;;1.10;62.21;102144.31;4876929;29;20489;-83
2022/03/09 08:32:52;;;;;;;13.95;7.30;;;;;;;1.21;62.04;102138.72;4877595;29;20047;-82
2022/03/09 08:35:17;;;;;;;14.10;6.47;;;;;;;1.22;62.33;102140.38;4875866;29;20076;-82
2022/03/09 08:37:42;;;;;;;17.70;7.00;;;;;;;1.27;62.36;102148.66;4875562;29;20052;-82
2022/03/09 08:40:08;;;;;;;12.80;6.70;;;;;;;1.31;62.09;102143.84;4876027;29;20115;-82
2022/03/09 08:42:34;;;;;;;12.35;6.50;;;;;;;1.49;61.33;102141.91;4877315;29;20396;-82
2022/03/09 08:44:59;;;;;;;14.33;7.03;;;;;;;1.61;61.48;102133.63;4877382;29;20033;-82
2022/03/09 08:47:24;;;;;;;12.83;6.43;;;;;;;1.85;60.28;102145.19;4877082;29;20053;-82
2022/03/09 08:49:50;;;;;;;15.50;6.60;;;;;;;1.98;59.97;102150.78;4876259;29;20029;-82
2022/03/09 08:52:15;;;;;;;14.00;6.23;;;;;;;2.06;59.75;102147.28;4877640;29;20441;-83
2022/03/09 08:54:41;;;;;;;15.37;6.57;;;;;;;2.14;59.62;102152.56;4877504;29;20029;-82
2022/03/09 08:57:07;;;;;;;15.57;6.60;;;;;;;2.25;58.97;102151.38;4876726;29;20029;-83
2022/03/09 08:59:32;;;;;;;12.63;6.73;;;;;;;2.36;58.97;102150.22;4877585;29;20033;-83
2022/03/09 09:01:59;;;;;;;14.27;7.00;;;;;;;2.62;57.64;102149.09;4876910;29;20032;-82
2022/03/09 09:04:24;;;;;;;12.93;7.10;;;;;;;2.71;57.63;102145.44;4877299;29;20037;-83
2022/03/09 09:06:50;;;;;;;11.90;6.47;;;;;;;2.83;57.25;102138.75;4860225;29;20608;-82
2022/03/09 09:09:17;;;;;;;11.60;6.60;;;;;;;3.01;56.55;102156.19;4876816;29;20036;-83
2022/03/09 09:11:43;;;;;;;14.43;6.35;;;;;;;3.10;56.53;102149.03;4876904;29;20065;-83
2022/03/09 09:14:08;;;;;;;14.00;7.60;;;;;;;3.25;55.51;102143.81;4877139;29;20499;-83
2022/03/09 09:16:33;;;;;;;14.40;6.73;;;;;;;3.22;55.86;102137.00;4859841;29;20033;-82
2022/03/09 09:18:59;;;;;;;11.57;6.13;;;;;;;3.28;55.30;102146.09;4876556;29;20064;-82
2022/03/09 09:21:24;;;;;;;14.20;7.43;;;;;;;3.33;55.63;102135.78;4876506;29;20033;-82
2022/03/09 09:23:49;;;;;;;12.97;6.73;;;;;;;3.42;55.39;102140.03;4876656;29;20041;-83
2022/03/09 09:26:16;;;;;;;13.60;7.93;;;;;;;3.52;55.65;102139.78;4875633;29;20528;-82
2022/03/09 09:28:47;;;;;;;12.88;7.05;;;;;;;3.67;55.04;102128.41;4876644;29;20029;-82
2022/03/09 09:31:13;;;;;;;16.42;7.90;;;;;;;3.84;54.01;102134.34;4875946;29;20037;-82
2022/03/09 09:33:38;;;;;;;20.63;7.93;;;;;;;4.02;53.90;102144.63;4875267;29;20536;-84
2022/03/09 09:36:10;;;;;;;15.43;7.32;;;;;;;4.26;54.28;102143.53;4881171;29;20056;-85
2022/03/09 09:38:44;;;;;;;18.43;8.83;;;;;;;4.42;52.77;102141.72;4877779;29;20150;-84
2022/03/09 09:41:15;;;;;;;15.90;8.38;;;;;;;4.40;52.32;102142.72;4876240;29;20152;-84
2022/03/09 09:43:40;;;;;;;17.83;8.18;;;;;;;4.48;51.69;102139.13;4860319;29;20492;-83
2022/03/09 09:46:06;;;;;;;17.10;8.80;;;;;;;4.54;51.92;102141.06;4875900;29;20104;-82
2022/03/09 09:48:32;;;;;;;15.30;7.80;;;;;;;4.63;51.57;102144.44;4876220;29;20029;-83
2022/03/09 09:50:58;;;;;;;17.33;8.57;;;;;;;4.65;52.05;102142.44;4876622;29;20025;-84
2022/03/09 09:53:26;;;;;;;16.87;7.50;;;;;;;4.73;51.69;102138.03;4877464;29;20073;-83
2022/03/09 09:55:51;;;;;;;18.92;8.65;;;;;;;4.78;50.97;102141.75;4876723;29;20033;-83
2022/03/09 09:58:19;;;;;;;17.70;8.70;;;;;;;4.88;51.75;102144.13;4876557;29;20029;-84
2022/03/09 10:00:45;;;;;;;19.77;9.60;;;;;;;4.99;51.31;102145.47;4878762;29;20297;-82
2022/03/09 10:03:12;;;;;;;21.10;9.13;;;;;;;5.08;51.34;102140.88;4876351;29;20033;-83
2022/03/09 10:05:40;;;;;;;20.65;9.05;;;;;;;5.25;51.06;102142.25;4875580;29;20033;-84
2022/03/09 10:08:05;;;;;;;17.47;9.30;;;;;;;5.28;50.69;102151.69;4875708;29;20031;-84
2022/03/09 10:10:32;;;;;;;15.13;8.47;;;;;;;5.37;50.58;102134.63;4876844;29;20290;-84
2022/03/09 10:13:16;;;;;;;22.80;9.17;;;;;;;5.44;51.58;102138.13;4876517;29;20477;-84
2022/03/09 10:15:43;;;;;;;18.73;8.57;;;;;;;5.51;50.19;102127.56;4875781;29;20836;-84
2022/03/09 10:18:20;;;;;;;17.15;8.68;;;;;;;5.69;50.40;102139.56;4875150;29;20025;-84
2022/03/09 10:20:49;;;;;;;17.02;9.18;;;;;;;5.75;51.34;102128.97;4875993;29;20036;-85
2022/03/09 10:23:16;;;;;;;17.75;8.32;;;;;;;5.84;50.52;102134.97;4875769;29;20537;-85
2022/03/09 10:25:42;;;;;;;16.35;9.05;;;;;;;5.87;50.19;102123.13;4876509;29;20040;-85
2022/03/09 10:28:09;;;;;;;16.38;8.52;;;;;;;5.99;50.58;102134.06;4859173;29;20029;-85
2022/03/09 10:30:39;;;;;;;17.85;9.07;;;;;;;6.12;49.68;102128.84;4858832;29;20421;-85
2022/03/09 10:33:09;;;;;;;16.30;8.10;;;;;;;6.19;49.42;102134.19;4877206;29;20041;-85
2022/03/09 10:35:39;;;;;;;17.40;8.57;;;;;;;6.25;48.87;102122.78;4879305;29;20266;-85
2022/03/09 10:38:22;;;;;;;21.65;8.98;;;;;;;6.26;50.61;102120.91;4862095;29;20059;-85
2022/03/09 10:40:50;;;;;;;27.10;10.10;;;;;;;6.33;49.08;102116.47;4876771;29;20507;-84
2022/03/09 10:43:21;;;;;;;20.13;9.13;;;;;;;6.38;49.29;102123.84;4879730;29;20057;-84
2022/03/09 10:46:07;;;;;;;22.65;11.50;;;;;;;6.46;49.60;102127.16;4879952;29;20097;-83
2022/03/09 10:48:50;;;;;;;23.65;10.30;;;;;;;6.54;50.02;102125.38;4879759;29;20045;-84
2022/03/09 10:51:33;;;;;;;22.42;10.90;;;;;;;6.66;50.17;102121.91;4865805;29;20029;-84
2022/03/09 10:54:02;;;;;;;27.17;11.48;;;;;;;6.89;49.43;102126.09;4862660;29;20064;-84
2022/03/09 10:56:30;;;;;;;22.83;10.68;;;;;;;7.04;49.35;102128.59;4879809;29;20029;-85
2022/03/09 10:58:55;;;;;;;25.50;10.13;;;;;;;7.20;48.45;102127.41;4879427;29;20117;-85
2022/03/09 11:01:23;;;;;;;26.53;13.53;;;;;;;7.36;48.83;102126.16;4879197;29;20391;-84
2022/03/09 11:03:48;;;;;;;26.80;10.57;;;;;;;7.53;48.36;102123.94;4879643;29;20115;-84
2022/03/09 11:06:17;;;;;;;27.13;11.90;;;;;;;7.66;47.54;102117.78;4878866;29;20104;-84
2022/03/09 11:08:42;;;;;;;23.27;11.70;;;;;;;7.85;46.85;102120.63;4879305;29;20362;-84
2022/03/09 11:11:12;;;;;;;30.83;12.10;;;;;;;7.98;46.94;102123.28;4879077;29;20029;-85
2022/03/09 11:13:40;;;;;;;26.50;11.18;;;;;;;7.99;46.33;102122.25;4879832;29;20060;-85
2022/03/09 11:16:07;;;;;;;23.83;12.32;;;;;;;8.14;46.66;102121.97;4878038;29;20119;-84
2022/03/09 11:18:45;;;;;;;21.33;10.90;;;;;;;8.16;47.12;102111.91;4862519;29;20025;-84
2022/03/09 11:21:11;;;;;;;32.30;12.43;;;;;;;8.32;46.75;102116.00;4862821;29;20112;-84
2022/03/09 11:23:41;;;;;;;27.03;13.37;;;;;;;8.41;45.69;102105.06;4879524;29;20107;-84
2022/03/09 11:26:21;;;;;;;25.67;11.15;;;;;;;8.64;44.43;102120.63;4878000;29;20025;-85
2022/03/09 11:28:47;;;;;;;30.90;13.60;;;;;;;8.66;44.77;102117.72;4861417;29;20056;-84
2022/03/09 11:31:32;;;;;;;25.08;11.75;;;;;;;8.74;44.91;102112.16;4883188;29;20040;-84
2022/03/09 11:34:01;;;;;;;29.00;12.13;;;;;;;8.70;44.39;102093.03;4879520;29;20033;-84
2022/03/09 12:07:35;;;;;;;31.13;13.30;;;;;;;10.60;40.82;102072.31;4902154;29;20043;-84
2022/03/09 12:13:32;;;;;;;27.10;14.65;;;;;;;10.83;39.55;102076.13;4906371;29;20099;-85
2022/03/09 12:16:31;;;;;;;27.77;12.93;;;;;;;10.84;39.22;102069.72;4914795;29;20036;-85
2022/03/09 12:19:04;;;;;;;30.77;13.77;;;;;;;10.89;39.10;102072.53;4880099;29;20647;-85
2022/03/09 12:22:07;;;;;;;30.20;14.05;;;;;;;10.94;39.83;102064.63;4885980;29;20092;-85
2022/03/09 12:25:06;;;;;;;27.88;14.65;;;;;;;10.93;39.68;102054.97;4820276;29;20135;-85
2022/03/09 12:27:33;;;;;;;26.63;13.25;;;;;;;11.05;38.81;102063.84;4800952;29;20047;-85
2022/03/09 12:30:47;;;;;;;29.27;13.48;;;;;;;11.11;39.35;102048.69;4784072;29;20043;-85
2022/03/09 12:33:58;;;;;;;30.65;14.05;;;;;;;11.09;39.77;102056.13;4817305;29;20079;-85
2022/03/09 12:36:37;;;;;;;26.65;13.82;;;;;;;11.18;38.62;102051.25;4825765;29;20744;-85
2022/03/09 12:39:18;;;;;;;32.70;14.32;;;;;;;11.38;38.42;102055.47;4826834;29;20042;-85
2022/03/09 12:42:00;;;;;;;32.85;15.75;;;;;;;11.38;39.29;102044.72;4882917;29;20473;-85
2022/03/09 12:44:36;;;;;;;30.67;14.17;;;;;;;11.56;37.06;102054.53;4912898;29;20452;-86
2022/03/09 12:47:17;;;;;;;36.67;15.73;;;;;;;11.59;37.85;102059.44;4862869;29;20387;-85
2022/03/09 12:49:43;;;;;;;30.48;13.73;;;;;;;11.64;37.32;102056.84;4852847;29;20041;-85
2022/03/09 12:52:19;;;;;;;34.75;16.05;;;;;;;11.57;37.54;102051.63;4856371;29;20053;-85
2022/03/09 12:55:03;;;;;;;31.80;14.93;;;;;;;11.63;37.55;102056.06;4855496;29;20481;-85
2022/03/09 12:57:39;;;;;;;32.92;14.90;;;;;;;11.65;36.86;102056.63;4834885;29;20525;-86
2022/03/09 13:00:17;;;;;;;33.95;15.10;;;;;;;11.67;36.68;102037.59;4838204;29;20077;-86
2022/03/09 13:02:49;;;;;;;31.77;15.98;;;;;;;11.73;37.63;102036.66;4837813;29;20098;-86
2022/03/09 13:05:38;;;;;;;32.67;14.70;;;;;;;11.74;37.44;102032.09;4842391;29;20029;-84
2022/03/09 13:08:16;;;;;;;32.20;14.70;;;;;;;11.83;37.08;102038.75;4902743;29;20788;-85
2022/03/09 13:10:52;;;;;;;31.20;14.38;;;;;;;11.80;36.74;102031.16;4912806;29;20046;-85
2022/03/09 13:13:17;;;;;;;31.95;14.88;;;;;;;11.97;36.69;102048.19;4882568;29;20035;-86
2022/03/09 13:15:51;;;;;;;35.85;14.85;;;;;;;11.81;36.81;102030.13;4914032;29;20024;-85
2022/03/09 13:54:29;;;;;;;33.42;14.15;;;;;;;12.04;34.32;102025.78;5061614;23;20058;-86
2022/03/09 13:57:10;;;;;;;32.23;14.83;;;;;;;12.04;36.26;102029.25;4969049;28;20047;-86
2022/03/09 14:40:20;;;;;;;35.20;14.02;;;;;;;12.33;35.53;101996.22;4980922;22;20051;-89
2022/03/09 14:42:55;;;;;;;31.48;14.43;;;;;;;12.36;34.33;101996.53;4971034;28;20149;-86
2022/03/09 14:48:09;;;;;;;31.27;14.60;;;;;;;12.41;34.17;101998.53;5210449;22;20059;-87
2022/03/09 14:51:00;;;;;;;29.20;14.00;;;;;;;12.43;33.87;102001.75;4973389;28;20631;-87
2022/03/09 14:59:27;;;;;;;31.73;15.25;;;;;;;12.56;34.50;101995.28;4968646;28;20166;-87
2022/03/09 15:08:36;;;;;;;29.58;13.80;;;;;;;12.52;35.11;102000.31;4970790;23;20066;-87
2022/03/09 15:11:02;;;;;;;31.58;14.68;;;;;;;12.48;34.82;101998.38;4954405;28;20562;-86
2022/03/09 15:13:31;;;;;;;35.00;14.52;;;;;;;12.48;34.37;102001.88;4955662;28;20047;-86
2022/03/09 15:15:56;;;;;;;31.93;14.03;;;;;;;12.44;33.69;102000.72;4993746;22;20540;-85
2022/03/09 15:18:22;;;;;;;32.17;14.87;;;;;;;12.48;33.89;101998.38;4991700;28;20293;-85
2022/03/09 15:20:48;;;;;;;33.50;14.57;;;;;;;12.46;33.52;102001.28;4973585;28;20054;-85
2022/03/09 15:23:16;;;;;;;34.40;13.90;;;;;;;12.46;33.54;102009.34;4980607;28;20034;-86
2022/03/09 15:25:43;;;;;;;33.83;14.07;;;;;;;12.46;34.77;102014.72;4979463;28;20030;-84
2022/03/09 15:28:09;;;;;;;31.52;14.38;;;;;;;12.38;34.63;102004.38;4969238;28;20026;-85
2022/03/09 15:30:34;;;;;;;34.90;14.10;;;;;;;12.35;34.00;102008.34;4968365;28;20031;-85
2022/03/09 16:16:35;;;;;;;33.72;15.43;;;;;;;11.48;37.00;101992.09;5426223;22;20051;-86
2022/03/09 16:19:11;;;;;;;38.47;16.27;;;;;;;11.37;36.73;101979.53;4933290;28;20047;-88
2022/03/09 16:21:38;;;;;;;38.20;16.45;;;;;;;11.33;37.00;101981.84;4960638;28;20023;-86
2022/03/09 16:24:04;;;;;;;37.22;15.60;;;;;;;11.34;36.74;101979.97;4951550;28;20528;-87
2022/03/09 16:26:30;;;;;;;34.73;15.83;;;;;;;11.23;37.64;101992.34;4953215;28;20039;-87
2022/03/09 16:29:03;;;;;;;34.83;15.95;;;;;;;11.10;37.20;101995.28;4935888;29;20042;-87
2022/03/09 16:50:25;;;;;;;36.08;16.50;;;;;;;10.43;40.29;102011.31;4931629;29;20039;-91
2022/03/09 17:13:12;;;;;;;40.30;15.67;;;;;;;9.57;43.20;102029.22;5229449;22;20157;-91
2022/03/09 17:18:17;;;;;;;39.15;15.82;;;;;;;9.21;44.14;102026.28;4997757;22;20047;-91
2022/03/09 17:20:45;;;;;;;36.33;15.97;;;;;;;8.98;44.84;102016.16;4995658;28;20037;-89
2022/03/09 17:23:20;;;;;;;39.13;16.83;;;;;;;8.75;45.01;102023.72;4980180;28;20278;-89
2022/03/09 17:25:51;;;;;;;41.05;16.77;;;;;;;8.60;44.95;102034.69;4967138;28;20493;-89
2022/03/09 17:28:23;;;;;;;38.78;16.20;;;;;;;8.40;46.48;102034.00;4987034;28;20023;-87
2022/03/09 17:30:49;;;;;;;36.40;16.27;;;;;;;8.17;47.00;102038.78;4948714;28;20182;-87
2022/03/09 17:33:14;;;;;;;35.78;15.10;;;;;;;8.07;47.73;102056.28;4953185;29;20489;-85
2022/03/09 17:35:40;;;;;;;40.03;15.83;;;;;;;7.86;48.17;102060.84;4954173;28;20031;-88
2022/03/09 17:41:16;;;;;;;43.78;17.13;;;;;;;7.32;49.84;102044.94;4898311;29;20054;-96
2022/03/09 17:49:22;;;;;;;42.70;16.15;;;;;;;6.81;51.84;102063.16;5022572;22;20074;-96
2022/03/09 17:52:00;;;;;;;38.92;15.73;;;;;;;6.59;52.02;102056.31;4998341;28;20018;-95
2022/03/09 17:54:39;;;;;;;39.20;16.15;;;;;;;6.44;52.77;102064.50;4981124;28;20026;-95
2022/03/09 17:57:28;;;;;;;39.17;16.00;;;;;;;6.25;53.21;102060.72;4981292;28;20024;-95
2022/03/09 18:00:10;;;;;;;42.67;17.10;;;;;;;6.22;53.84;102075.25;4958280;28;20051;-96
2022/03/09 18:02:40;;;;;;;41.03;17.03;;;;;;;6.07;55.32;102078.03;4958715;28;20106;-95
2022/03/09 18:05:12;;;;;;;42.57;16.77;;;;;;;5.90;55.77;102065.03;4961840;28;20434;-95
2022/03/09 18:07:56;;;;;;;40.65;16.90;;;;;;;5.85;56.27;102067.44;4957851;29;20034;-96
2022/03/09 18:22:06;;;;;;;42.58;16.55;;;;;;;5.20;58.10;102075.56;4966595;29;20086;-96
2022/03/09 18:28:07;;;;;;;40.85;15.85;;;;;;;4.97;58.47;102097.00;4904401;29;20436;-95
2022/03/09 18:34:04;;;;;;;48.83;17.27;;;;;;;4.80;59.42;102104.38;4958112;23;20314;-95
2022/03/09 18:43:20;;;;;;;46.95;17.52;;;;;;;4.62;60.40;102100.31;5023555;23;20066;-96
2022/03/09 18:45:49;;;;;;;40.55;16.70;;;;;;;4.44;61.51;102073.34;4959982;28;20019;-95
2022/03/09 18:48:15;;;;;;;43.95;17.00;;;;;;;4.44;61.85;102083.97;4959663;28;20039;-96
2022/03/09 18:50:46;;;;;;;42.97;17.17;;;;;;;4.27;61.88;102076.19;4981237;23;20127;-95
2022/03/09 18:53:21;;;;;;;41.25;17.25;;;;;;;4.25;62.08;102083.53;5019986;23;20504;-95
2022/03/09 18:56:01;;;;;;;46.63;17.85;;;;;;;4.23;61.98;102098.81;4970724;28;20534;-96
2022/03/09 18:58:29;;;;;;;51.93;18.50;;;;;;;4.13;62.83;102088.47;4987151;28;20034;-96
2022/03/09 19:00:55;;;;;;;45.57;17.83;;;;;;;4.15;62.89;102098.91;4987852;28;20325;-96
2022/03/09 19:03:22;;;;;;;50.20;18.73;;;;;;;3.99;63.40;102090.13;4988064;28;20026;-96
2022/03/09 19:06:04;;;;;;;50.00;18.80;;;;;;;3.97;63.16;102092.13;4985388;28;20027;-96
2022/03/09 19:09:12;;;;;;;;;;;;;;;;;;;;;
2022/03/09 19:11:37;;;;;;;46.13;17.13;;;;;;;3.75;64.05;102081.41;4986645;28;20534;-96
2022/03/09 19:14:57;;;;;;;50.30;18.07;;;;;;;3.80;63.33;102096.78;4987649;28;20302;-96
2022/03/09 19:17:41;;;;;;;52.20;19.00;;;;;;;3.59;63.36;102087.69;4967651;29;20556;-95
2022/03/09 19:20:31;;;;;;;;;;;;;;;;;;;;;
2022/03/09 19:26:46;;;;;;;45.70;17.77;;;;;;;3.48;64.13;102098.72;4996733;28;20132;-96
2022/03/09 19:29:18;;;;;;;41.70;17.93;;;;;;;3.29;65.56;102097.38;4999335;28;20305;-96
2022/03/09 19:31:56;;;;;;;41.50;17.75;;;;;;;3.17;65.72;102097.81;4998383;28;20018;-94
2022/03/09 19:34:24;;;;;;;47.65;19.15;;;;;;;3.23;66.49;102121.97;4995951;28;20030;-95
2022/03/09 19:36:52;;;;;;;50.08;19.50;;;;;;;3.12;66.69;102104.66;4973147;28;20033;-95
2022/03/09 19:39:18;;;;;;;44.65;18.67;;;;;;;3.05;66.69;102101.03;4982286;28;20018;-94
2022/03/09 19:41:54;;;;;;;49.28;19.98;;;;;;;3.01;66.52;102108.53;4980514;28;20025;-95
2022/03/09 19:44:25;;;;;;;49.05;19.92;;;;;;;2.95;67.16;102104.75;4965309;28;20026;-95
2022/03/09 19:46:54;;;;;;;48.10;20.25;;;;;;;2.91;67.08;102102.63;4980893;28;20131;-95
2022/03/09 19:49:32;;;;;;;45.80;19.88;;;;;;;2.86;67.12;102113.72;4981259;28;20031;-96